createdAt,value
2022-11-27T00:02:29.796Z,63.83
2022-11-27T00:05:00.612Z,63.66
2022-11-27T00:07:33.052Z,63.86
2022-11-27T00:10:05.860Z,63.89
2022-11-27T00:12:38.504Z,63.76
2022-11-27T00:15:13.401Z,63.65
2022-11-27T00:17:48.408Z,63.58
2022-11-27T00:20:20.804Z,63.69
2022-11-27T00:22:53.127Z,63.68
2022-11-27T00:25:25.453Z,63.60
2022-11-27T00:27:57.865Z,63.40
2022-11-27T00:30:30.282Z,63.46
2022-11-27T00:33:02.556Z,63.26
2022-11-27T00:35:37.341Z,63.15
2022-11-27T00:38:11.121Z,63.11
2022-11-27T00:40:43.572Z,63.02
2022-11-27T00:43:15.836Z,63.02
2022-11-27T00:45:51.769Z,63.05
2022-11-27T00:48:24.046Z,62.95
2022-11-27T00:51:02.071Z,62.92
2022-11-27T00:53:34.612Z,62.77
2022-11-27T00:56:07.553Z,62.68
2022-11-27T00:58:39.910Z,62.60
2022-11-27T01:01:18.101Z,62.55
2022-11-27T01:03:50.646Z,62.60
2022-11-27T01:06:23.732Z,62.51
2022-11-27T01:08:56.190Z,62.41
2022-11-27T01:11:30.946Z,62.47
2022-11-27T01:14:05.212Z,62.31
2022-11-27T01:16:42.719Z,62.52
2022-11-27T01:19:17.989Z,62.28
2022-11-27T01:21:50.385Z,62.19
2022-11-27T01:24:22.736Z,62.40
2022-11-27T01:26:55.102Z,62.27
2022-11-27T01:29:27.485Z,62.19
2022-11-27T01:31:59.669Z,62.28
2022-11-27T01:34:31.978Z,62.06
2022-11-27T01:37:04.234Z,61.88
2022-11-27T01:39:36.495Z,62.00
2022-11-27T01:42:10.244Z,61.85
2022-11-27T01:44:54.922Z,61.87
2022-11-27T01:47:41.525Z,61.82
2022-11-27T01:50:18.750Z,61.96
2022-11-27T01:52:54.510Z,61.86
2022-11-27T01:55:31.834Z,61.86
2022-11-27T01:58:08.691Z,62.06
2022-11-27T02:00:41.119Z,62.12
2022-11-27T02:03:14.189Z,61.92
2022-11-27T02:05:46.535Z,62.04
2022-11-27T02:08:19.657Z,61.78
2022-11-27T02:10:55.400Z,61.87
2022-11-27T02:13:33.429Z,61.87
2022-11-27T02:16:17.925Z,61.89
2022-11-27T02:18:57.802Z,61.81
2022-11-27T02:21:35.654Z,61.75
2022-11-27T02:24:38.782Z,61.71
2022-11-27T02:27:40.821Z,61.64
2022-11-27T02:30:13.810Z,61.58
2022-11-27T02:32:49.809Z,61.52
2022-11-27T02:35:24.871Z,61.39
2022-11-27T02:38:00.475Z,61.42
2022-11-27T02:40:35.912Z,61.15
2022-11-27T02:43:11.265Z,61.30
2022-11-27T02:45:45.813Z,61.30
2022-11-27T02:48:21.450Z,61.12
2022-11-27T02:50:55.053Z,61.14
2022-11-27T02:53:30.008Z,61.25
2022-11-27T02:56:03.057Z,60.89
2022-11-27T02:58:36.073Z,60.75
2022-11-27T03:01:09.107Z,60.80
2022-11-27T03:03:43.461Z,60.91
2022-11-27T03:06:20.777Z,60.98
2022-11-27T03:08:55.718Z,60.87
2022-11-27T03:11:30.980Z,60.94
2022-11-27T03:14:06.638Z,61.04
2022-11-27T03:16:41.762Z,61.02
2022-11-27T03:19:20.958Z,61.04
2022-11-27T03:21:55.690Z,61.13
2022-11-27T03:24:28.466Z,60.77
2022-11-27T03:27:02.186Z,60.83
2022-11-27T03:29:38.893Z,60.96
2022-11-27T03:32:11.265Z,61.03
2022-11-27T03:34:44.160Z,61.19
2022-11-27T03:37:16.582Z,60.89
2022-11-27T03:39:48.963Z,60.94
2022-11-27T03:42:26.641Z,60.98
2022-11-27T03:45:05.293Z,60.95
2022-11-27T03:47:59.159Z,60.75
2022-11-27T03:50:38.081Z,60.91
2022-11-27T03:53:14.985Z,60.95
2022-11-27T03:55:54.233Z,60.93
2022-11-27T03:58:35.369Z,60.74
2022-11-27T04:01:09.411Z,60.81
2022-11-27T04:03:41.844Z,60.55
2022-11-27T04:06:14.219Z,60.71
2022-11-27T04:08:47.641Z,60.84
2022-11-27T04:11:20.052Z,60.96
2022-11-27T04:13:53.133Z,60.79
2022-11-27T04:16:25.615Z,60.75
2022-11-27T04:18:56.409Z,60.62
2022-11-27T04:21:28.757Z,60.71
2022-11-27T04:24:00.981Z,60.66
2022-11-27T04:26:33.271Z,60.72
2022-11-27T04:29:05.660Z,60.65
2022-11-27T04:31:37.920Z,60.68
2022-11-27T04:34:10.149Z,60.63
2022-11-27T04:36:42.591Z,60.69
2022-11-27T04:39:14.980Z,60.65
2022-11-27T04:41:47.391Z,60.80
2022-11-27T04:44:22.818Z,60.64
2022-11-27T04:46:55.159Z,60.45
2022-11-27T04:49:27.468Z,60.40
2022-11-27T04:51:59.806Z,60.43
2022-11-27T04:54:32.110Z,60.46
2022-11-27T04:57:04.566Z,60.47
2022-11-27T04:59:37.108Z,60.46
2022-11-27T05:02:07.796Z,60.42
2022-11-27T05:04:42.489Z,60.37
2022-11-27T05:07:15.226Z,60.46
2022-11-27T05:09:47.490Z,60.43
2022-11-27T05:12:19.900Z,60.51
2022-11-27T05:14:52.293Z,60.47
2022-11-27T05:17:24.644Z,60.49
2022-11-27T05:19:57.138Z,60.59
2022-11-27T05:22:29.465Z,60.50
2022-11-27T05:25:01.864Z,60.62
2022-11-27T05:27:34.279Z,60.67
2022-11-27T05:30:08.109Z,60.59
2022-11-27T05:32:40.831Z,60.66
2022-11-27T05:35:13.405Z,60.66
2022-11-27T05:37:44.142Z,60.66
2022-11-27T05:40:17.349Z,60.71
2022-11-27T05:42:49.687Z,60.69
2022-11-27T05:45:22.001Z,60.58
2022-11-27T05:47:54.406Z,60.65
2022-11-27T05:50:26.844Z,60.65
2022-11-27T05:52:59.283Z,60.57
2022-11-27T05:55:31.647Z,60.58
2022-11-27T05:58:04.108Z,60.70
2022-11-27T06:00:36.486Z,60.65
2022-11-27T06:03:08.860Z,60.66
2022-11-27T06:05:43.364Z,60.64
2022-11-27T06:08:15.748Z,60.43
2022-11-27T06:10:48.002Z,60.41
2022-11-27T06:13:20.233Z,60.43
2022-11-27T06:15:52.544Z,60.68
2022-11-27T06:18:24.829Z,60.51
2022-11-27T06:20:57.157Z,60.44
2022-11-27T06:23:29.480Z,60.37
2022-11-27T06:26:01.761Z,60.43
2022-11-27T06:28:34.037Z,60.32
2022-11-27T06:31:17.269Z,60.49
2022-11-27T06:33:50.904Z,60.39
2022-11-27T06:36:24.685Z,60.47
2022-11-27T06:38:57.037Z,60.45
2022-11-27T06:41:29.964Z,60.41
2022-11-27T06:44:03.213Z,60.35
2022-11-27T06:46:35.566Z,60.23
2022-11-27T06:49:07.929Z,60.26
2022-11-27T06:51:40.155Z,60.27
2022-11-27T06:54:12.461Z,60.19
2022-11-27T06:56:44.935Z,60.18
2022-11-27T06:59:17.594Z,60.24
2022-11-27T07:01:48.398Z,60.17
2022-11-27T07:04:23.393Z,60.29
2022-11-27T07:06:56.980Z,60.25
2022-11-27T07:09:29.500Z,60.27
2022-11-27T07:12:01.888Z,60.23
2022-11-27T07:14:34.528Z,60.21
2022-11-27T07:17:05.277Z,60.32
2022-11-27T07:19:37.938Z,60.25
2022-11-27T07:22:08.677Z,60.22
2022-11-27T07:24:41.579Z,60.31
2022-11-27T07:27:14.793Z,60.18
2022-11-27T07:29:47.065Z,60.03
2022-11-27T07:32:19.314Z,60.16
2022-11-27T07:34:51.720Z,60.08
2022-11-27T07:37:24.032Z,60.04
2022-11-27T07:40:02.553Z,59.92
2022-11-27T07:42:38.394Z,59.85
2022-11-27T07:45:12.469Z,59.98
2022-11-27T07:47:44.772Z,59.95
2022-11-27T07:50:17.051Z,59.87
2022-11-27T07:52:49.304Z,59.80
2022-11-27T07:55:21.483Z,59.96
2022-11-27T07:57:54.004Z,59.85
2022-11-27T08:00:26.470Z,59.80
2022-11-27T08:02:58.808Z,59.79
2022-11-27T08:05:31.119Z,59.91
2022-11-27T08:08:05.040Z,59.53
2022-11-27T08:10:39.887Z,59.59
2022-11-27T08:13:12.532Z,59.32
2022-11-27T08:15:43.099Z,59.19
2022-11-27T08:18:15.595Z,59.40
2022-11-27T08:20:47.823Z,59.40
2022-11-27T08:23:20.240Z,59.14
2022-11-27T08:25:52.536Z,59.25
2022-11-27T08:28:24.720Z,59.22
2022-11-27T08:31:01.343Z,59.06
2022-11-27T08:33:33.999Z,59.03
2022-11-27T08:36:04.787Z,59.02
2022-11-27T08:38:37.290Z,59.08
2022-11-27T08:41:11.320Z,58.64
2022-11-27T08:43:43.651Z,58.67
2022-11-27T08:46:16.164Z,58.67
2022-11-27T08:48:48.543Z,58.79
2022-11-27T08:51:21.081Z,58.77
2022-11-27T08:53:51.764Z,58.86
2022-11-27T08:56:25.409Z,58.89
2022-11-27T08:58:58.159Z,59.00
2022-11-27T09:01:32.580Z,58.74
2022-11-27T09:04:05.300Z,58.80
2022-11-27T09:06:37.899Z,58.64
2022-11-27T09:09:08.914Z,58.63
2022-11-27T09:11:41.787Z,58.29
2022-11-27T09:14:14.562Z,58.56
2022-11-27T09:16:47.698Z,58.29
2022-11-27T09:19:18.632Z,58.42
2022-11-27T09:21:52.175Z,58.03
2022-11-27T09:24:24.972Z,57.67
2022-11-27T09:26:57.270Z,57.87
2022-11-27T09:29:29.571Z,57.86
2022-11-27T09:32:02.363Z,57.73
2022-11-27T09:34:37.470Z,57.72
2022-11-27T09:37:11.228Z,57.57
2022-11-27T09:39:43.531Z,57.52
2022-11-27T09:42:30.131Z,57.82
2022-11-27T09:45:02.843Z,57.72
2022-11-27T09:47:41.921Z,57.54
2022-11-27T09:50:18.191Z,57.44
2022-11-27T09:52:53.720Z,57.41
2022-11-27T09:55:30.029Z,57.21
2022-11-27T09:58:13.082Z,57.17
2022-11-27T10:00:46.581Z,57.11
2022-11-27T10:03:24.783Z,57.10
2022-11-27T10:06:04.454Z,57.23
2022-11-27T10:08:43.233Z,57.31
2022-11-27T10:11:24.808Z,56.92
2022-11-27T10:14:19.441Z,56.86
2022-11-27T10:16:55.809Z,57.06
2022-11-27T10:19:36.461Z,56.92
2022-11-27T10:25:13.023Z,56.77
2022-11-27T10:27:48.996Z,56.71
2022-11-27T10:30:23.422Z,56.61
2022-11-27T10:32:58.767Z,56.64
2022-11-27T10:35:32.409Z,56.56
2022-11-27T10:38:08.393Z,56.60
2022-11-27T10:40:43.272Z,56.65
2022-11-27T10:43:20.686Z,56.70
2022-11-27T10:45:55.457Z,56.64
2022-11-27T10:48:29.744Z,56.15
2022-11-27T10:51:01.980Z,56.18
2022-11-27T10:53:36.012Z,56.28
2022-11-27T10:56:26.651Z,56.32
2022-11-27T10:59:01.226Z,56.08
2022-11-27T11:01:45.699Z,56.08
2022-11-27T11:04:37.467Z,55.82
2022-11-27T11:07:27.482Z,55.77
2022-11-27T11:09:59.985Z,55.80
2022-11-27T11:12:30.825Z,55.84
2022-11-27T11:15:04.971Z,55.69
2022-11-27T11:17:38.539Z,55.85
2022-11-27T11:20:21.577Z,56.02
2022-11-27T11:22:54.445Z,56.01
2022-11-27T11:25:26.738Z,56.09
2022-11-27T11:27:59.033Z,55.95
2022-11-27T11:30:33.590Z,55.92
2022-11-27T11:33:06.840Z,56.08
2022-11-27T11:35:39.544Z,55.81
2022-11-27T11:38:19.048Z,55.85
2022-11-27T11:41:03.152Z,55.46
2022-11-27T11:43:37.210Z,55.55
2022-11-27T11:46:19.443Z,55.78
2022-11-27T11:49:03.088Z,55.50
2022-11-27T11:52:21.190Z,55.33
2022-11-27T11:55:01.345Z,55.58
2022-11-27T11:58:12.676Z,55.25
2022-11-27T12:01:11.793Z,55.15
2022-11-27T12:03:55.918Z,55.03
2022-11-27T12:06:42.416Z,54.89
2022-11-27T12:09:35.985Z,54.77
2022-11-27T12:12:07.997Z,54.53
2022-11-27T12:14:44.900Z,54.61
2022-11-27T12:17:27.796Z,54.35
2022-11-27T12:20:18.485Z,54.18
2022-11-27T12:23:21.087Z,54.28
2022-11-27T12:25:58.960Z,54.38
2022-11-27T12:28:46.466Z,54.03
2022-11-27T12:31:32.995Z,54.17
2022-11-27T12:34:08.923Z,54.15
2022-11-27T12:37:00.659Z,54.22
2022-11-27T12:39:37.880Z,53.94
2022-11-27T12:42:21.956Z,53.97
2022-11-27T12:44:58.519Z,53.82
2022-11-27T12:47:40.031Z,53.90
2022-11-27T12:50:19.458Z,53.72
2022-11-27T12:52:59.677Z,53.89
2022-11-27T12:55:34.171Z,54.21
2022-11-27T12:58:10.694Z,54.62
2022-11-27T13:00:44.161Z,54.72
2022-11-27T13:03:20.126Z,54.81
2022-11-27T13:05:56.942Z,54.94
2022-11-27T13:08:32.323Z,54.80
2022-11-27T13:11:08.458Z,54.95
2022-11-27T13:13:42.669Z,55.22
2022-11-27T13:16:20.464Z,55.20
2022-11-27T13:18:56.378Z,55.24
2022-11-27T13:21:34.294Z,55.27
2022-11-27T13:24:07.667Z,55.45
2022-11-27T13:26:48.408Z,55.37
2022-11-27T13:29:26.162Z,55.12
2022-11-27T13:32:00.339Z,55.08
2022-11-27T13:34:34.095Z,55.24
2022-11-27T13:37:08.640Z,55.39
2022-11-27T13:39:42.807Z,55.47
2022-11-27T13:42:22.425Z,55.66
2022-11-27T13:44:59.480Z,55.80
2022-11-27T13:47:38.306Z,55.63
2022-11-27T13:50:13.451Z,55.57
2022-11-27T13:52:57.425Z,55.74
2022-11-27T13:55:32.128Z,55.65
2022-11-27T13:58:05.790Z,55.76
2022-11-27T14:00:40.912Z,55.99
2022-11-27T14:03:26.792Z,55.92
2022-11-27T14:05:59.613Z,55.93
2022-11-27T14:08:35.248Z,56.15
2022-11-27T14:11:11.877Z,56.15
2022-11-27T14:13:45.563Z,56.33
2022-11-27T14:16:26.388Z,56.32
2022-11-27T14:19:02.110Z,56.41
2022-11-27T14:21:42.816Z,56.27
2022-11-27T14:24:35.599Z,56.28
2022-11-27T14:27:19.434Z,56.42
2022-11-27T14:29:52.330Z,56.48
2022-11-27T14:32:24.569Z,56.60
2022-11-27T14:34:56.829Z,56.39
2022-11-27T14:37:29.855Z,56.59
2022-11-27T14:40:02.227Z,56.54
2022-11-27T14:42:39.103Z,56.64
2022-11-27T14:45:16.728Z,57.01
2022-11-27T14:47:52.201Z,56.84
2022-11-27T14:50:24.786Z,57.08
2022-11-27T14:52:55.859Z,56.96
2022-11-27T14:55:34.470Z,56.98
2022-11-27T14:58:07.123Z,56.82
2022-11-27T15:00:39.428Z,57.00
2022-11-27T15:03:17.623Z,57.11
2022-11-27T15:05:56.514Z,57.05
2022-11-27T15:08:29.099Z,57.16
2022-11-27T15:11:00.083Z,57.19
2022-11-27T15:13:33.993Z,57.27
2022-11-27T15:16:09.227Z,57.20
2022-11-27T15:18:41.751Z,57.33
2022-11-27T15:21:12.613Z,57.21
2022-11-27T15:23:49.733Z,57.30
2022-11-27T15:26:34.813Z,57.41
2022-11-27T15:29:07.551Z,57.35
2022-11-27T15:31:53.469Z,57.43
2022-11-27T15:34:26.626Z,57.32
2022-11-27T15:37:02.478Z,57.57
2022-11-27T15:39:40.214Z,57.61
2022-11-27T15:42:14.695Z,57.47
2022-11-27T15:44:47.008Z,57.62
2022-11-27T15:47:28.213Z,57.53
2022-11-27T15:50:01.701Z,57.61
2022-11-27T15:52:34.321Z,57.78
2022-11-27T15:55:05.705Z,57.77
2022-11-27T15:57:37.891Z,57.87
2022-11-27T16:00:13.214Z,57.98
2022-11-27T16:02:46.180Z,57.98
2022-11-27T16:05:18.743Z,57.92
2022-11-27T16:07:54.840Z,58.06
2022-11-27T16:10:27.748Z,58.15
2022-11-27T16:12:59.919Z,58.13
2022-11-27T16:15:33.241Z,58.15
2022-11-27T16:18:07.273Z,58.20
2022-11-27T16:20:40.705Z,58.23
2022-11-27T16:23:12.993Z,58.35
2022-11-27T16:25:45.134Z,58.45
2022-11-27T16:28:19.329Z,58.34
2022-11-27T16:30:51.720Z,58.48
2022-11-27T16:33:26.158Z,58.34
2022-11-27T16:36:04.918Z,58.27
2022-11-27T16:38:37.444Z,58.39
2022-11-27T16:41:11.633Z,58.47
2022-11-27T16:43:48.970Z,58.65
2022-11-27T16:46:23.317Z,58.42
2022-11-27T16:48:57.097Z,58.37
2022-11-27T16:51:32.086Z,58.48
2022-11-27T16:54:06.482Z,58.45
2022-11-27T16:56:38.915Z,58.49
2022-11-27T16:59:13.281Z,58.53
2022-11-27T17:01:45.804Z,58.70
2022-11-27T17:04:20.474Z,58.57
2022-11-27T17:06:53.983Z,58.49
2022-11-27T17:09:29.432Z,58.55
2022-11-27T17:12:01.609Z,58.61
2022-11-27T17:14:33.753Z,58.54
2022-11-27T17:17:06.884Z,58.72
2022-11-27T17:19:39.335Z,58.81
2022-11-27T17:22:12.806Z,58.80
2022-11-27T17:24:43.438Z,58.88
2022-11-27T17:27:15.767Z,59.00
2022-11-27T17:29:47.960Z,59.05
2022-11-27T17:32:21.748Z,59.11
2022-11-27T17:34:54.471Z,59.07
2022-11-27T17:37:24.942Z,59.05
2022-11-27T17:39:59.212Z,59.23
2022-11-27T17:42:32.756Z,59.11
2022-11-27T17:45:04.449Z,59.13
2022-11-27T17:47:37.349Z,59.22
2022-11-27T17:50:11.463Z,59.32
2022-11-27T17:52:43.644Z,59.33
2022-11-27T17:55:15.863Z,59.44
2022-11-27T17:57:48.727Z,59.55
2022-11-27T18:00:21.393Z,59.38
2022-11-27T18:02:51.904Z,59.56
2022-11-27T18:05:24.147Z,59.60
2022-11-27T18:07:57.527Z,59.61
2022-11-27T18:10:30.603Z,59.66
2022-11-27T18:13:03.093Z,59.63
2022-11-27T18:15:36.586Z,59.69
2022-11-27T18:18:10.752Z,59.79
2022-11-27T18:20:43.222Z,59.80
2022-11-27T18:23:16.395Z,59.80
2022-11-27T18:25:49.180Z,59.86
2022-11-27T18:28:21.827Z,59.91
2022-11-27T18:30:54.218Z,59.92
2022-11-27T18:33:26.591Z,60.02
2022-11-27T18:35:59.110Z,59.97
2022-11-27T18:38:33.034Z,60.05
2022-11-27T18:41:11.345Z,59.97
2022-11-27T18:43:44.117Z,60.03
2022-11-27T18:46:18.935Z,59.99
2022-11-27T18:48:52.726Z,59.91
2022-11-27T18:51:26.737Z,60.02
2022-11-27T18:53:59.741Z,60.07
2022-11-27T18:56:33.373Z,60.09
2022-11-27T18:59:07.249Z,60.14
2022-11-27T19:01:42.586Z,60.16
2022-11-27T19:04:15.561Z,60.11
2022-11-27T19:06:50.159Z,60.21
2022-11-27T19:09:22.590Z,60.22
2022-11-27T19:11:55.083Z,60.20
2022-11-27T19:14:27.539Z,60.13
2022-11-27T19:17:02.540Z,60.28
2022-11-27T19:22:30.053Z,60.37
2022-11-27T19:25:02.538Z,60.22
2022-11-27T19:27:35.066Z,60.23
2022-11-27T19:30:09.778Z,60.22
2022-11-27T19:32:42.247Z,60.24
2022-11-27T19:35:14.729Z,60.28
2022-11-27T19:37:47.179Z,60.30
2022-11-27T19:40:20.390Z,60.25
2022-11-27T19:42:56.690Z,60.30
2022-11-27T19:45:32.936Z,60.22
2022-11-27T19:48:05.760Z,60.28
2022-11-27T19:50:38.323Z,60.25
2022-11-27T19:53:10.996Z,60.31
2022-11-27T19:55:43.433Z,60.46
2022-11-27T19:58:16.852Z,60.33
2022-11-27T20:00:49.429Z,60.30
2022-11-27T20:03:21.988Z,60.36
2022-11-27T20:06:04.536Z,60.39
2022-11-27T20:08:37.505Z,60.26
2022-11-27T20:11:10.629Z,60.49
2022-11-27T20:13:44.512Z,60.44
2022-11-27T20:16:22.835Z,60.43
2022-11-27T20:18:55.329Z,60.36
2022-11-27T20:21:28.527Z,60.40
2022-11-27T20:24:01.066Z,60.55
2022-11-27T20:26:36.177Z,60.53
2022-11-27T20:29:11.190Z,60.77
2022-11-27T20:31:45.166Z,60.63
2022-11-27T20:34:21.836Z,60.55
2022-11-27T20:36:54.352Z,60.62
2022-11-27T20:39:28.572Z,60.70
2022-11-27T20:42:01.018Z,60.47
2022-11-27T20:44:33.534Z,60.37
2022-11-27T20:47:06.082Z,60.44
2022-11-27T20:49:38.708Z,60.54
2022-11-27T20:52:11.544Z,60.56
2022-11-27T20:54:44.042Z,60.49
2022-11-27T20:57:16.570Z,60.20
2022-11-27T20:59:48.997Z,60.07
2022-11-27T21:02:21.579Z,59.95
2022-11-27T21:04:54.117Z,59.93
2022-11-27T21:07:26.626Z,59.95
2022-11-27T21:09:59.197Z,60.05
2022-11-27T21:12:31.641Z,60.07
2022-11-27T21:15:04.155Z,60.22
2022-11-27T21:17:36.593Z,60.32
2022-11-27T21:20:13.311Z,60.29
2022-11-27T21:22:45.884Z,60.48
2022-11-27T21:25:21.520Z,60.55
2022-11-27T21:27:58.616Z,60.59
2022-11-27T21:30:31.124Z,60.42
2022-11-27T21:33:03.565Z,60.49
2022-11-27T21:35:40.179Z,60.50
2022-11-27T21:38:13.069Z,60.47
2022-11-27T21:40:45.649Z,60.59
2022-11-27T21:43:18.062Z,60.51
2022-11-27T21:45:50.669Z,60.57
2022-11-27T21:48:23.369Z,60.56
2022-11-27T21:51:03.288Z,60.77
2022-11-27T21:53:36.379Z,60.75
2022-11-27T21:56:10.471Z,60.67
2022-11-27T21:58:43.548Z,60.78
2022-11-27T22:01:18.387Z,60.75
2022-11-27T22:03:54.297Z,60.84
2022-11-27T22:06:28.991Z,60.91
2022-11-27T22:09:01.996Z,60.97
2022-11-27T22:11:34.435Z,60.96
2022-11-27T22:14:08.229Z,61.18
2022-11-27T22:16:45.390Z,61.07
2022-11-27T22:19:19.053Z,61.07
2022-11-27T22:21:50.075Z,61.24
2022-11-27T22:24:22.549Z,61.26
2022-11-27T22:26:55.041Z,61.28
2022-11-27T22:29:27.512Z,61.50
2022-11-27T22:32:00.118Z,61.44
2022-11-27T22:34:32.643Z,61.48
2022-11-27T22:37:06.216Z,61.48
2022-11-27T22:39:38.751Z,61.45
2022-11-27T22:42:12.332Z,61.53
2022-11-27T22:44:44.952Z,61.55
2022-11-27T22:47:17.425Z,61.61
2022-11-27T22:49:49.851Z,61.60
2022-11-27T22:52:22.345Z,61.73
2022-11-27T22:54:54.788Z,61.86
2022-11-27T22:57:27.239Z,61.87
2022-11-27T22:59:59.637Z,62.02
2022-11-27T23:02:32.200Z,62.00
2022-11-27T23:05:05.012Z,62.14
2022-11-27T23:07:37.610Z,62.06
2022-11-27T23:10:13.195Z,62.07
2022-11-27T23:12:45.625Z,62.43
2022-11-27T23:15:18.201Z,62.23
2022-11-27T23:17:52.727Z,62.17
2022-11-27T23:20:25.351Z,62.27
2022-11-27T23:22:57.943Z,62.19
2022-11-27T23:25:32.116Z,62.40
2022-11-27T23:28:04.889Z,62.47
2022-11-27T23:30:38.340Z,62.35
2022-11-27T23:33:10.921Z,62.30
2022-11-27T23:35:43.258Z,62.27
2022-11-27T23:38:15.838Z,62.56
2022-11-27T23:40:48.364Z,62.58
2022-11-27T23:43:20.778Z,62.44
2022-11-27T23:45:53.371Z,62.66
2022-11-27T23:48:25.955Z,62.34
2022-11-27T23:50:58.469Z,62.85
2022-11-27T23:53:32.054Z,62.68
2022-11-27T23:56:05.326Z,62.91
2022-11-27T23:58:42.306Z,62.97
